Daretown, New Jersey
Current Conditions -  °F | °C
As of 12:54 PM on Thursday 27 Nov 2014 (Local Time) from KMIV Reporting Station
Broken Clouds Broken Clouds  
Wind Chill: 37°   Ceiling: 6500
Heat Index: 43°   Visibility: 10mi
Dew Point: 32°   Wind: 10mph
Humidity: 65%   Direction: 280°W
Pressure: 30"   Gusts: NA
Location:  39.5646°N, 75.1874°W
Report Text: KMIV 271754Z AUTO 28009KT 10SM BKN065 06/00 A3000 RMK AO2 SLP159 T00610000 10067 20000 56014
Loading
Personal Weather Stations






























Interactive Weather Map New forecast layout! Learn more

10-Day Weather Forecast

Advertisements
Track Severe Weather on mobile